Wind From: 10-12-2017 19:04 Until: 11-12-2017 16:00 warning for: Wind Level: Orange info button

Power and phone distribution networks may be disrupted for relatively long periods., Roofs and chimneys can be damaged. , Tree branches may break. , Vehicles can be deported. , Traffic may be disrupted, particularly on secondary roads in forest areas. Limit your trips. , Limit your speed in highway driving, especially if you drive a vehicle or hitch sensitive to wind. , Do not go for walks in forests or along the coast., In town, be vigilant against possible falling objects., Do not work on roofs and do not touch any electrical line fallen on the ground., Store or secure sensitive objects to wind or likely to be damaged., Always install power generators outside buildings. 


Meteo18 Weather Cam more information Meteo18 Weather Cam


Thunder radar more information blitzortung!


Rain radar more information rain snow radar


Visit our other weather sites:

Template documentation
and downloads

And another site



Weather Underground History page Text

Daily Summary for April 22, 2017 Units:  English    Metric   Both
« Previous Day
Next Day »
Daily Weekly Monthly Yearly Custom
  High: Low: Average:
Temperature: 64 °F 39.7 °F 52.9 °F
Dew Point: 43.7 °F 30 °F 37.6 °F
Humidity: 79 % 44 % 57 %
Wind Speed: 13 mph 0 mph 3.1 mph
Wind Gust: 18 mph - -
Wind:- - SSE
Pressure: 30.4 in 30.3 in -
Precipitation: 0 in    
Historical Graphs
 
 
Tabular Data for April 22, 2017
Time Temperature Dew Point Pressure Wind Wind Speed Wind Gust Humidity Rainfall Rate (Hourly)
00:02 48.9 °F 32 °F 30.4 in NNW 1 mph 5 mph 52 % 0 in
00:07 48.7 °F 31.8 °F 30.4 in NNW 2 mph 5 mph 52 % 0 in
00:12 48.7 °F 31.8 °F 30.4 in North 2 mph 5 mph 52 % 0 in
00:17 48.7 °F 31.8 °F 30.4 in North 3 mph 5 mph 52 % 0 in
00:22 48.4 °F 32 °F 30.4 in North 1 mph 5 mph 53 % 0 in
00:27 48 °F 31.6 °F 30.4 in North 1 mph 5 mph 53 % 0 in
00:32 47.8 °F 31.5 °F 30.4 in Calm   5 mph 53 % 0 in
00:37 47.8 °F 32 °F 30.4 in Calm   5 mph 54 % 0 in
00:42 47.7 °F 31.8 °F 30.4 in Calm   3 mph 54 % 0 in
00:52 47.1 °F 31.8 °F 30.4 in Calm   3 mph 55 % 0 in
01:02 45.7 °F 31.8 °F 30.4 in WNW 1 mph 2 mph 58 % 0 in
01:12 46 °F 31.3 °F 30.4 in NNW 1 mph 2 mph 56 % 0 in
01:17 46 °F 31.3 °F 30.4 in NNW 1 mph 2 mph 56 % 0 in
01:22 46 °F 31.3 °F 30.4 in Calm   2 mph 56 % 0 in
01:27 45.7 °F 31.3 °F 30.4 in Calm   2 mph 57 % 0 in
01:32 45 °F 31.5 °F 30.4 in Calm   2 mph 59 % 0 in
01:37 45.1 °F 31.3 °F 30.4 in Calm     58 % 0 in
01:42 45.9 °F 31.1 °F 30.4 in Calm     56 % 0 in
01:47 45.9 °F 31.1 °F 30.4 in Calm     56 % 0 in
01:52 45.1 °F 31.6 °F 30.4 in Calm     59 % 0 in
01:57 43.9 °F 31.3 °F 30.4 in Calm     61 % 0 in
02:02 44.1 °F 31.1 °F 30.4 in Calm     60 % 0 in
02:07 45.1 °F 30.7 °F 30.4 in Calm     57 % 0 in
02:12 45 °F 30.6 °F 30.4 in Calm     57 % 0 in
02:17 44.4 °F 30.6 °F 30.4 in Calm     58 % 0 in
02:22 44.4 °F 30.6 °F 30.4 in Calm     58 % 0 in
02:27 44.4 °F 30.6 °F 30.4 in Calm     58 % 0 in
02:32 44.2 °F 30.4 °F 30.4 in Calm     58 % 0 in
02:37 43.9 °F 30.6 °F 30.4 in Calm     59 % 0 in
02:42 44.1 °F 30.2 °F 30.4 in NNW 1 mph   58 % 0 in
02:47 44.4 °F 30.2 °F 30.4 in Calm   3 mph 57 % 0 in
02:52 44.4 °F 30.2 °F 30.4 in Calm   3 mph 57 % 0 in
02:57 44.2 °F 30.4 °F 30.4 in NW 2 mph 2 mph 58 % 0 in
03:02 44.4 °F 30.2 °F 30.4 in NW 1 mph 2 mph 57 % 0 in
03:07 44.8 °F 30.6 °F 30.4 in NW 1 mph 2 mph 57 % 0 in
03:12 44.8 °F 30.6 °F 30.4 in NW 2 mph 2 mph 57 % 0 in
03:17 44.8 °F 30.6 °F 30.4 in NW 1 mph 2 mph 57 % 0 in
03:22 45 °F 30.2 °F 30.4 in Calm   2 mph 56 % 0 in
03:27 45 °F 30.2 °F 30.4 in NW 2 mph 2 mph 56 % 0 in
03:32 44.8 °F 30.6 °F 30.4 in NW 2 mph 2 mph 57 % 0 in
03:37 44.8 °F 30.6 °F 30.4 in NW 2 mph 3 mph 57 % 0 in
03:42 44.6 °F 30.4 °F 30.4 in NNW 2 mph 3 mph 57 % 0 in
03:47 44.6 °F 30.4 °F 30.4 in NNW 2 mph 3 mph 57 % 0 in
03:52 44.4 °F 30.2 °F 30.4 in NNW 1 mph 3 mph 57 % 0 in
03:57 44.4 °F 30.2 °F 30.4 in NNW 1 mph 3 mph 57 % 0 in
04:02 44.2 °F 30.4 °F 30.4 in NNW 1 mph 3 mph 58 % 0 in
04:12 44.1 °F 30.2 °F 30.4 in NNW 1 mph 2 mph 58 % 0 in
04:17 44.2 °F 30 °F 30.4 in NNW 1 mph 2 mph 57 % 0 in
04:22 43.7 °F 30.4 °F 30.4 in Calm   2 mph 59 % 0 in
04:32 43 °F 30 °F 30.4 in NNW 1 mph 2 mph 60 % 0 in
04:37 43.2 °F 30.2 °F 30.4 in NNW 1 mph 1 mph 60 % 0 in
04:42 43.2 °F 30.2 °F 30.4 in Calm   1 mph 60 % 0 in
04:47 42.6 °F 30.2 °F 30.4 in NNW 1 mph 2 mph 61 % 0 in
04:52 42.4 °F 30.4 °F 30.4 in NW 1 mph 2 mph 62 % 0 in
05:02 42.6 °F 30.2 °F 30.4 in NW 2 mph 3 mph 61 % 0 in
05:12 42.4 °F 30.4 °F 30.4 in NNW 1 mph 3 mph 62 % 0 in
05:22 42.3 °F 30.6 °F 30.4 in Calm   3 mph 63 % 0 in
05:27 41.9 °F 30.2 °F 30.4 in NW 2 mph 2 mph 63 % 0 in
05:32 41.5 °F 30.2 °F 30.3 in NW 3 mph 3 mph 64 % 0 in
05:37 41.4 °F 30 °F 30.4 in NW 1 mph 3 mph 64 % 0 in
05:42 41.2 °F 30.4 °F 30.4 in NNW 3 mph 3 mph 65 % 0 in
05:47 40.8 °F 30.4 °F 30.4 in Calm   3 mph 66 % 0 in
05:52 40.5 °F 30.4 °F 30.4 in NNW 1 mph 3 mph 67 % 0 in
05:57 40.5 °F 30.4 °F 30.4 in NNW 1 mph 3 mph 67 % 0 in
06:02 40.6 °F 30.2 °F 30.3 in NNW 1 mph 3 mph 66 % 0 in
06:12 40.6 °F 30.6 °F 30.3 in NW 1 mph 2 mph 67 % 0 in
06:17 41.2 °F 30.4 °F 30.3 in NNW 1 mph 2 mph 65 % 0 in
06:22 40.6 °F 30.2 °F 30.3 in NNW 1 mph 2 mph 66 % 0 in
06:32 39.9 °F 30.6 °F 30.3 in Calm   2 mph 69 % 0 in
06:37 39.7 °F 30.4 °F 30.3 in NNW 2 mph 2 mph 69 % 0 in
06:42 40.3 °F 30.6 °F 30.3 in NNW 1 mph 1 mph 68 % 0 in
06:52 40.5 °F 30 °F 30.4 in North 3 mph 3 mph 66 % 0 in
06:57 40.6 °F 30.2 °F 30.4 in North 2 mph 3 mph 66 % 0 in
07:02 40.8 °F 30 °F 30.4 in North 1 mph 3 mph 65 % 0 in
07:12 41.2 °F 30.4 °F 30.4 in NNW 1 mph 3 mph 65 % 0 in
07:22 41.2 °F 30.7 °F 30.4 in NNW 1 mph 2 mph 66 % 0 in
07:32 41.5 °F 30.7 °F 30.4 in Calm   2 mph 65 % 0 in
07:42 42.3 °F 30.9 °F 30.4 in Calm   2 mph 64 % 0 in
07:47 42.4 °F 31.5 °F 30.4 in Calm   1 mph 65 % 0 in
07:52 42.1 °F 31.1 °F 30.4 in Calm   1 mph 65 % 0 in
08:02 42.3 °F 31.6 °F 30.4 in Calm   1 mph 66 % 0 in
08:12 43.3 °F 33.1 °F 30.4 in Calm   1 mph 67 % 0 in
08:17 43.9 °F 34 °F 30.4 in Calm     68 % 0 in
08:22 45 °F 35.8 °F 30.4 in Calm     70 % 0 in
08:32 46.9 °F 35.4 °F 30.4 in Calm     64 % 0 in
08:42 48.6 °F 34.5 °F 30.4 in Calm   2 mph 58 % 0 in
08:47 49.6 °F 34.5 °F 30.4 in Calm   1 mph 56 % 0 in
08:52 50 °F 34 °F 30.4 in North 2 mph 2 mph 54 % 0 in
09:02 50.2 °F 35.1 °F 30.4 in NNE 1 mph 3 mph 56 % 0 in
09:12 51.3 °F 35.6 °F 30.4 in NNE 1 mph 3 mph 55 % 0 in
09:17 51.6 °F 35.1 °F 30.4 in NNE 1 mph 5 mph 53 % 0 in
09:22 52 °F 35.4 °F 30.4 in Calm   5 mph 53 % 0 in
09:32 53.2 °F 35.6 °F 30.4 in Calm   3 mph 51 % 0 in
09:42 53.4 °F 35.8 °F 30.4 in North 1 mph 3 mph 51 % 0 in
09:52 54.1 °F 37.4 °F 30.4 in ENE 1 mph 6 mph 53 % 0 in
10:02 54.9 °F 38.5 °F 30.4 in ESE 2 mph 6 mph 54 % 0 in
10:12 55.2 °F 37.9 °F 30.4 in East 3 mph 5 mph 52 % 0 in
10:22 55 °F 38.3 °F 30.4 in Calm   4 mph 53 % 0 in
10:27 55.8 °F 39.4 °F 30.4 in ENE 3 mph 5 mph 54 % 0 in
10:32 55.8 °F 38.5 °F 30.4 in ENE 2 mph 5 mph 52 % 0 in
10:42 56.7 °F 39.7 °F 30.4 in ESE 2 mph 5 mph 53 % 0 in
10:52 57.2 °F 39.2 °F 30.4 in ENE 5 mph 5 mph 51 % 0 in
11:02 57.7 °F 39.2 °F 30.4 in ENE 6 mph 10 mph 50 % 0 in
11:12 58.3 °F 39.7 °F 30.4 in ESE 1 mph 9 mph 50 % 0 in
11:17 58.8 °F 40.8 °F 30.4 in ENE 3 mph 9 mph 51 % 0 in
11:22 59.2 °F 40.6 °F 30.4 in NNE 5 mph 9 mph 50 % 0 in
11:32 59.2 °F 40.6 °F 30.4 in ENE 2 mph 8 mph 50 % 0 in
11:42 59.5 °F 40.3 °F 30.4 in ENE 5 mph 8 mph 49 % 0 in
11:47 59.5 °F 40.8 °F 30.3 in East 4 mph 9 mph 50 % 0 in
11:52 59.5 °F 40.3 °F 30.3 in ENE 2 mph 9 mph 49 % 0 in
12:02 60.3 °F 42.1 °F 30.3 in NE 4 mph 9 mph 51 % 0 in
12:07 60.4 °F 40.6 °F 30.3 in Calm   8 mph 48 % 0 in
12:12 61 °F 43.2 °F 30.3 in ESE 4 mph 8 mph 52 % 0 in
12:17 60.8 °F 41.5 °F 30.3 in ENE 3 mph 8 mph 49 % 0 in
12:22 60.8 °F 40.5 °F 30.3 in NE 4 mph 8 mph 47 % 0 in
12:32 61.3 °F 41.5 °F 30.3 in NNE 8 mph 11 mph 48 % 0 in
12:42 61.5 °F 41.2 °F 30.3 in NNE 12 mph 12 mph 47 % 0 in
12:52 61 °F 41.2 °F 30.3 in NNE 2 mph 11 mph 48 % 0 in
12:57 61.2 °F 39.7 °F 30.3 in Calm   12 mph 45 % 0 in
13:02 61.7 °F 41.2 °F 30.3 in East 3 mph 12 mph 47 % 0 in
13:07 61.7 °F 40.6 °F 30.3 in NE 2 mph 14 mph 46 % 0 in
13:12 61.7 °F 40.1 °F 30.3 in SSE 1 mph 14 mph 45 % 0 in
13:17 61.9 °F 41.4 °F 30.3 in ENE 8 mph 14 mph 47 % 0 in
13:22 62.1 °F 42.6 °F 30.3 in NNE 4 mph 14 mph 49 % 0 in
13:27 62.2 °F 41.2 °F 30.3 in ENE 4 mph 11 mph 46 % 0 in
13:32 62.4 °F 40.8 °F 30.3 in Calm   11 mph 45 % 0 in
13:37 63 °F 41.9 °F 30.3 in East 3 mph 9 mph 46 % 0 in
13:42 63.3 °F 42.8 °F 30.3 in ENE 5 mph 9 mph 47 % 0 in
13:47 63 °F 43 °F 30.3 in NNE 2 mph 10 mph 48 % 0 in
13:52 63.1 °F 43.2 °F 30.3 in East 3 mph 10 mph 48 % 0 in
13:57 63.5 °F 43 °F 30.3 in NE 9 mph 9 mph 47 % 0 in
14:02 63.1 °F 41.5 °F 30.3 in NE 6 mph 9 mph 45 % 0 in
14:12 62.8 °F 41.7 °F 30.3 in NE 1 mph 13 mph 46 % 0 in
14:17 62.8 °F 42.3 °F 30.3 in North 5 mph 14 mph 47 % 0 in
14:22 63 °F 43 °F 30.3 in NE 9 mph 14 mph 48 % 0 in
14:27 63 °F 43.5 °F 30.3 in NNW 9 mph 14 mph 49 % 0 in
14:32 63.3 °F 42.8 °F 30.3 in NNE 13 mph 14 mph 47 % 0 in
14:37 63 °F 41.9 °F 30.3 in North 13 mph 14 mph 46 % 0 in
14:42 62.8 °F 41.7 °F 30.3 in NNE 3 mph 14 mph 46 % 0 in
14:47 63.3 °F 43.3 °F 30.3 in North 3 mph 14 mph 48 % 0 in
14:57 63.3 °F 41.5 °F 30.3 in WSW 3 mph 9 mph 45 % 0 in
15:02 63.7 °F 42.4 °F 30.3 in NNE 8 mph 9 mph 46 % 0 in
15:12 63.1 °F 43.2 °F 30.3 in North 8 mph 15 mph 48 % 0 in
15:17 63.3 °F 42.3 °F 30.3 in WNW 3 mph 15 mph 46 % 0 in
15:22 63.7 °F 41.4 °F 30.3 in NE 6 mph 15 mph 44 % 0 in
15:32 63.5 °F 41.7 °F 30.3 in NNW 2 mph 16 mph 45 % 0 in
15:37 63.3 °F 41.5 °F 30.3 in North 4 mph 15 mph 45 % 0 in
15:42 63.3 °F 43.3 °F 30.3 in NNW 4 mph 15 mph 48 % 0 in
15:52 63.9 °F 42.1 °F 30.3 in North 3 mph 15 mph 45 % 0 in
15:57 64 °F 41.7 °F 30.3 in NNE 2 mph 13 mph 44 % 0 in
16:02 63.7 °F 42.4 °F 30.3 in NE 8 mph 13 mph 46 % 0 in
16:12 63.9 °F 42.6 °F 30.3 in NE 6 mph 14 mph 46 % 0 in
16:17 63.9 °F 43.7 °F 30.3 in NE 11 mph 14 mph 48 % 0 in
16:22 63.7 °F 42.4 °F 30.3 in NE 8 mph 14 mph 46 % 0 in
16:27 63.3 °F 42.3 °F 30.3 in WNW 1 mph 16 mph 46 % 0 in
16:32 63.7 °F 43.2 °F 30.3 in NE 6 mph 16 mph 47 % 0 in
16:37 63.3 °F 41.5 °F 30.3 in North 3 mph 16 mph 45 % 0 in
16:42 63.3 °F 43.3 °F 30.3 in North 5 mph 16 mph 48 % 0 in
16:47 63 °F 43 °F 30.3 in NNE 5 mph 15 mph 48 % 0 in
16:52 63.1 °F 42.6 °F 30.3 in NW 8 mph 15 mph 47 % 0 in
17:02 63.1 °F 43.2 °F 30.3 in NNE 5 mph 15 mph 48 % 0 in
17:12 62.4 °F 43.5 °F 30.3 in North 9 mph 14 mph 50 % 0 in
17:17 62.2 °F 42.8 °F 30.3 in NNW 7 mph 14 mph 49 % 0 in
17:22 62.2 °F 43.3 °F 30.3 in NNE 4 mph 14 mph 50 % 0 in
17:27 62.6 °F 43.2 °F 30.3 in North 6 mph 12 mph 49 % 0 in
17:32 62.1 °F 42.1 °F 30.3 in NE 5 mph 12 mph 48 % 0 in
17:37 61.7 °F 42.8 °F 30.3 in NNW 6 mph 11 mph 50 % 0 in
17:42 61.3 °F 42.6 °F 30.3 in West 3 mph 11 mph 50 % 0 in
17:47 61.3 °F 42.6 °F 30.3 in NNE 7 mph 15 mph 50 % 0 in
17:52 61.3 °F 42.6 °F 30.3 in NNE 9 mph 15 mph 50 % 0 in
17:57 61.2 °F 41.9 °F 30.3 in North 6 mph 13 mph 49 % 0 in
18:02 61 °F 42.3 °F 30.3 in NNE 9 mph 13 mph 50 % 0 in
18:12 60.6 °F 43 °F 30.3 in NE 6 mph 15 mph 52 % 0 in
18:17 61 °F 42.8 °F 30.3 in North 5 mph 18 mph 51 % 0 in
18:22 61 °F 42.3 °F 30.3 in NNE 9 mph 18 mph 50 % 0 in
18:32 60.4 °F 42.3 °F 30.3 in NNE 7 mph 15 mph 51 % 0 in
18:42 60.1 °F 41.9 °F 30.3 in NNE 9 mph 16 mph 51 % 0 in
18:52 59.7 °F 41.5 °F 30.3 in North 6 mph 14 mph 51 % 0 in
19:02 59.4 °F 41.7 °F 30.3 in NE 13 mph 13 mph 52 % 0 in
19:07 59.4 °F 41.7 °F 30.3 in NNE 9 mph 17 mph 52 % 0 in
19:12 59.4 °F 41.7 °F 30.3 in NE 11 mph 17 mph 52 % 0 in
19:17 59.2 °F 41 °F 30.3 in WNW 7 mph 15 mph 51 % 0 in
19:22 58.8 °F 41.2 °F 30.3 in NNE 7 mph 15 mph 52 % 0 in
19:32 58.6 °F 41.5 °F 30.3 in North 5 mph 14 mph 53 % 0 in
19:37 58.5 °F 41.4 °F 30.3 in NE 3 mph 15 mph 53 % 0 in
19:42 58.3 °F 41.2 °F 30.3 in NE 7 mph 15 mph 53 % 0 in
19:47 58.1 °F 42.1 °F 30.3 in NNE 7 mph 15 mph 55 % 0 in
19:52 57.9 °F 41.9 °F 30.3 in NE 7 mph 15 mph 55 % 0 in
19:57 57.7 °F 41.7 °F 30.3 in ENE 4 mph 15 mph 55 % 0 in
20:02 57.6 °F 41.9 °F 30.3 in NNE 4 mph 15 mph 56 % 0 in
20:12 57 °F 42.4 °F 30.3 in North 7 mph 13 mph 58 % 0 in
20:17 56.8 °F 42.6 °F 30.3 in NNE 9 mph 15 mph 59 % 0 in
20:22 56.3 °F 42.6 °F 30.3 in NNE 6 mph 15 mph 60 % 0 in
20:32 55.8 °F 43 °F 30.3 in NE 9 mph 15 mph 62 % 0 in
20:37 55.4 °F 42.6 °F 30.3 in NE 4 mph 12 mph 62 % 0 in
20:42 55.2 °F 42.8 °F 30.3 in NNE 8 mph 12 mph 63 % 0 in
20:47 54.9 °F 42.4 °F 30.3 in NNE 7 mph 11 mph 63 % 0 in
20:52 54.5 °F 42.6 °F 30.3 in NNE 3 mph 11 mph 64 % 0 in
21:02 53.8 °F 42.6 °F 30.3 in North 5 mph 10 mph 66 % 0 in
21:07 53.8 °F 42.6 °F 30.3 in NE 3 mph 9 mph 66 % 0 in
21:12 53.4 °F 42.8 °F 30.3 in NW 3 mph 9 mph 67 % 0 in
21:17 53.4 °F 42.8 °F 30.3 in NNW 4 mph 10 mph 67 % 0 in
21:22 53.2 °F 42.6 °F 30.3 in NNW 2 mph 10 mph 67 % 0 in
21:27 53.1 °F 42.4 °F 30.3 in NE 4 mph 10 mph 67 % 0 in
21:32 52.5 °F 42.3 °F 30.3 in NNW 4 mph 10 mph 68 % 0 in
21:42 52.2 °F 42.3 °F 30.3 in NNW 4 mph 8 mph 69 % 0 in
21:47 52 °F 42.4 °F 30.3 in NNE 4 mph 8 mph 70 % 0 in
21:57 51.6 °F 42.4 °F 30.3 in Calm   8 mph 71 % 0 in
22:02 51.4 °F 42.4 °F 30.3 in NNE 2 mph 8 mph 71 % 0 in
22:07 51.3 °F 42.3 °F 30.3 in North 2 mph 5 mph 71 % 0 in
22:17 51.1 °F 42.4 °F 30.3 in NNW 1 mph 4 mph 72 % 0 in
22:22 50.9 °F 42.3 °F 30.3 in NNW 1 mph 4 mph 72 % 0 in
22:37 50.2 °F 42.3 °F 30.3 in NNE 1 mph 5 mph 74 % 0 in
22:42 50.2 °F 42.3 °F 30.3 in North 2 mph 5 mph 74 % 0 in
22:47 50 °F 42.4 °F 30.3 in Calm   6 mph 75 % 0 in
22:52 49.8 °F 42.3 °F 30.3 in NNE 5 mph 6 mph 75 % 0 in
22:57 50 °F 42.4 °F 30.3 in NE 1 mph 9 mph 75 % 0 in
23:02 49.8 °F 42.6 °F 30.3 in NE 2 mph 9 mph 76 % 0 in
23:12 49.6 °F 42.4 °F 30.3 in NE 6 mph 7 mph 76 % 0 in
23:17 49.8 °F 42.6 °F 30.3 in NNE 2 mph 11 mph 76 % 0 in
23:22 49.6 °F 42.4 °F 30.3 in NE 4 mph 11 mph 76 % 0 in
23:32 50.2 °F 43.3 °F 30.3 in NNE 6 mph 11 mph 77 % 0 in
23:37 50.2 °F 43.5 °F 30.3 in NNE 4 mph 11 mph 78 % 0 in
23:42 50 °F 43.3 °F 30.3 in NE 6 mph 11 mph 78 % 0 in
23:52 49.5 °F 43.2 °F 30.3 in NNE 3 mph 11 mph 79 % 0 in
23:57 49.1 °F 42.8 °F 30.3 in NNW 2 mph 10 mph 79 % 0 in
Meteo18
Compliments of Weather Underground - 4 mb

Script developed by  Jim McMurry - jmcmurry@mwt.net Adapted for the template by  Wim van der Kuil - Leuven-Template.eu

You find our weather info also at:

European Weather Network

Weather Underground

Equipment we use:

Weather-station
Davis Vue

Weather-program
Meteohub

Weather-server
Raspberry PI 2 B+

Provider
1 and 1

Davis Vue

Meteohub

Raspberry PI 2 B+

1 and 1